sensor_id;sensor_type;location;lat;lon;timestamp;temperature;humidity
9497;DHT22;4786;51.270;4.456;2022-07-29T00:00:07;19.30;99.90
9497;DHT22;4786;51.270;4.456;2022-07-29T00:02:36;19.10;99.90
9497;DHT22;4786;51.270;4.456;2022-07-29T00:05:03;19.10;99.90
9497;DHT22;4786;51.270;4.456;2022-07-29T00:07:30;19.10;99.90
9497;DHT22;4786;51.270;4.456;2022-07-29T00:09:57;19.10;99.90
9497;DHT22;4786;51.270;4.456;2022-07-29T00:12:24;19.10;99.90
9497;DHT22;4786;51.270;4.456;2022-07-29T00:14:51;19.20;99.90
9497;DHT22;4786;51.270;4.456;2022-07-29T00:17:17;19.20;99.90
9497;DHT22;4786;51.270;4.456;2022-07-29T00:19:43;19.30;99.90
9497;DHT22;4786;51.270;4.456;2022-07-29T00:22:09;19.30;99.90
9497;DHT22;4786;51.270;4.456;2022-07-29T00:24:35;19.30;99.90
9497;DHT22;4786;51.270;4.456;2022-07-29T00:27:01;19.30;99.90
9497;DHT22;4786;51.270;4.456;2022-07-29T00:29:27;19.40;99.90
9497;DHT22;4786;51.270;4.456;2022-07-29T00:31:53;19.30;99.90
9497;DHT22;4786;51.270;4.456;2022-07-29T00:34:19;19.30;99.90
9497;DHT22;4786;51.270;4.456;2022-07-29T00:37:03;19.20;99.90
9497;DHT22;4786;51.270;4.456;2022-07-29T00:39:30;19.20;99.90
9497;DHT22;4786;51.270;4.456;2022-07-29T00:41:55;19.30;99.90
9497;DHT22;4786;51.270;4.456;2022-07-29T00:44:21;19.30;99.90
9497;DHT22;4786;51.270;4.456;2022-07-29T00:46:47;19.30;99.90
9497;DHT22;4786;51.270;4.456;2022-07-29T00:49:13;19.30;99.90
9497;DHT22;4786;51.270;4.456;2022-07-29T00:51:39;19.20;99.90
9497;DHT22;4786;51.270;4.456;2022-07-29T00:54:05;19.10;99.90
9497;DHT22;4786;51.270;4.456;2022-07-29T00:56:32;19.00;99.90
9497;DHT22;4786;51.270;4.456;2022-07-29T00:58:59;19.00;99.90
9497;DHT22;4786;51.270;4.456;2022-07-29T01:01:26;19.00;99.90
9497;DHT22;4786;51.270;4.456;2022-07-29T01:03:52;19.00;99.90
9497;DHT22;4786;51.270;4.456;2022-07-29T01:06:19;19.00;99.90
9497;DHT22;4786;51.270;4.456;2022-07-29T01:08:47;19.00;99.90
9497;DHT22;4786;51.270;4.456;2022-07-29T01:11:15;19.00;99.90
9497;DHT22;4786;51.270;4.456;2022-07-29T01:13:43;19.00;99.90
9497;DHT22;4786;51.270;4.456;2022-07-29T01:16:33;19.00;99.90
9497;DHT22;4786;51.270;4.456;2022-07-29T01:21:57;18.70;99.90
9497;DHT22;4786;51.270;4.456;2022-07-29T01:24:40;18.60;99.90
9497;DHT22;4786;51.270;4.456;2022-07-29T01:29:58;18.50;99.90
9497;DHT22;4786;51.270;4.456;2022-07-29T01:32:28;18.50;99.90
9497;DHT22;4786;51.270;4.456;2022-07-29T01:37:47;18.60;99.90
9497;DHT22;4786;51.270;4.456;2022-07-29T01:40:40;18.60;99.90
9497;DHT22;4786;51.270;4.456;2022-07-29T01:43:20;18.60;99.90
9497;DHT22;4786;51.270;4.456;2022-07-29T01:46:05;18.60;99.90
9497;DHT22;4786;51.270;4.456;2022-07-29T01:49:08;18.70;99.90
9497;DHT22;4786;51.270;4.456;2022-07-29T01:54:06;18.60;99.90
9497;DHT22;4786;51.270;4.456;2022-07-29T01:56:35;18.60;99.90
9497;DHT22;4786;51.270;4.456;2022-07-29T01:59:04;18.60;99.90
9497;DHT22;4786;51.270;4.456;2022-07-29T02:01:33;18.60;99.90
9497;DHT22;4786;51.270;4.456;2022-07-29T02:04:03;18.60;99.90
9497;DHT22;4786;51.270;4.456;2022-07-29T02:06:32;18.60;99.90
9497;DHT22;4786;51.270;4.456;2022-07-29T02:09:00;18.30;99.90
9497;DHT22;4786;51.270;4.456;2022-07-29T02:11:28;18.40;99.90
9497;DHT22;4786;51.270;4.456;2022-07-29T02:13:56;18.50;99.90
9497;DHT22;4786;51.270;4.456;2022-07-29T02:16:24;18.50;99.90
9497;DHT22;4786;51.270;4.456;2022-07-29T02:18:52;18.60;99.90
9497;DHT22;4786;51.270;4.456;2022-07-29T02:21:23;18.60;99.90
9497;DHT22;4786;51.270;4.456;2022-07-29T02:23:51;18.50;99.90
9497;DHT22;4786;51.270;4.456;2022-07-29T02:26:20;18.50;99.90
9497;DHT22;4786;51.270;4.456;2022-07-29T02:28:48;18.40;99.90
9497;DHT22;4786;51.270;4.456;2022-07-29T02:31:16;18.30;99.90
9497;DHT22;4786;51.270;4.456;2022-07-29T02:33:45;18.20;99.90
9497;DHT22;4786;51.270;4.456;2022-07-29T02:36:12;18.20;99.90
9497;DHT22;4786;51.270;4.456;2022-07-29T02:38:41;18.30;99.90
9497;DHT22;4786;51.270;4.456;2022-07-29T02:41:33;18.30;99.90
9497;DHT22;4786;51.270;4.456;2022-07-29T02:44:09;18.20;99.90
9497;DHT22;4786;51.270;4.456;2022-07-29T02:46:36;18.10;99.90
9497;DHT22;4786;51.270;4.456;2022-07-29T02:49:10;18.10;99.90
9497;DHT22;4786;51.270;4.456;2022-07-29T02:51:54;18.10;99.90
9497;DHT22;4786;51.270;4.456;2022-07-29T02:54:31;18.10;99.90
9497;DHT22;4786;51.270;4.456;2022-07-29T02:57:00;18.20;99.90
9497;DHT22;4786;51.270;4.456;2022-07-29T02:59:27;18.20;99.90
9497;DHT22;4786;51.270;4.456;2022-07-29T03:01:58;18.20;99.90
9497;DHT22;4786;51.270;4.456;2022-07-29T03:04:26;18.10;99.90
9497;DHT22;4786;51.270;4.456;2022-07-29T03:06:53;18.10;99.90
9497;DHT22;4786;51.270;4.456;2022-07-29T03:09:22;18.00;99.90
9497;DHT22;4786;51.270;4.456;2022-07-29T03:11:48;18.00;99.90
9497;DHT22;4786;51.270;4.456;2022-07-29T03:14:15;17.90;99.90
9497;DHT22;4786;51.270;4.456;2022-07-29T03:16:42;17.90;99.90
9497;DHT22;4786;51.270;4.456;2022-07-29T03:19:08;18.00;99.90
9497;DHT22;4786;51.270;4.456;2022-07-29T03:21:34;18.00;99.90
9497;DHT22;4786;51.270;4.456;2022-07-29T03:23:59;17.90;99.90
9497;DHT22;4786;51.270;4.456;2022-07-29T03:26:25;17.90;99.90
9497;DHT22;4786;51.270;4.456;2022-07-29T03:28:51;17.90;99.90
9497;DHT22;4786;51.270;4.456;2022-07-29T03:31:16;18.00;99.90
9497;DHT22;4786;51.270;4.456;2022-07-29T03:33:42;18.00;99.90
9497;DHT22;4786;51.270;4.456;2022-07-29T03:36:07;17.90;99.90
9497;DHT22;4786;51.270;4.456;2022-07-29T03:38:35;17.80;99.90
9497;DHT22;4786;51.270;4.456;2022-07-29T03:41:07;17.80;99.90
9497;DHT22;4786;51.270;4.456;2022-07-29T03:43:36;17.70;99.90
9497;DHT22;4786;51.270;4.456;2022-07-29T03:46:04;17.80;99.90
9497;DHT22;4786;51.270;4.456;2022-07-29T03:48:33;17.80;99.90
9497;DHT22;4786;51.270;4.456;2022-07-29T03:51:01;17.70;99.90
9497;DHT22;4786;51.270;4.456;2022-07-29T03:53:27;17.80;99.90
9497;DHT22;4786;51.270;4.456;2022-07-29T03:55:56;17.70;99.90
9497;DHT22;4786;51.270;4.456;2022-07-29T03:58:26;17.60;99.90
9497;DHT22;4786;51.270;4.456;2022-07-29T04:00:56;17.60;99.90
9497;DHT22;4786;51.270;4.456;2022-07-29T04:03:22;17.60;99.90
9497;DHT22;4786;51.270;4.456;2022-07-29T04:06:02;17.50;99.90
9497;DHT22;4786;51.270;4.456;2022-07-29T04:08:29;17.50;99.90
9497;DHT22;4786;51.270;4.456;2022-07-29T04:10:55;17.60;99.90
9497;DHT22;4786;51.270;4.456;2022-07-29T04:13:21;17.60;99.90
9497;DHT22;4786;51.270;4.456;2022-07-29T04:15:47;17.60;99.90
9497;DHT22;4786;51.270;4.456;2022-07-29T04:18:13;17.60;99.90
9497;DHT22;4786;51.270;4.456;2022-07-29T04:20:39;17.60;99.90
9497;DHT22;4786;51.270;4.456;2022-07-29T04:23:04;17.50;99.90
9497;DHT22;4786;51.270;4.456;2022-07-29T04:25:30;17.50;99.90
9497;DHT22;4786;51.270;4.456;2022-07-29T04:27:56;17.50;99.90
9497;DHT22;4786;51.270;4.456;2022-07-29T04:30:32;17.50;99.90
9497;DHT22;4786;51.270;4.456;2022-07-29T04:33:01;17.50;99.90
9497;DHT22;4786;51.270;4.456;2022-07-29T04:35:29;17.50;99.90
9497;DHT22;4786;51.270;4.456;2022-07-29T04:37:55;17.50;99.90
9497;DHT22;4786;51.270;4.456;2022-07-29T04:40:20;17.50;99.90
9497;DHT22;4786;51.270;4.456;2022-07-29T04:42:47;17.40;99.90
9497;DHT22;4786;51.270;4.456;2022-07-29T04:45:12;17.40;99.90
9497;DHT22;4786;51.270;4.456;2022-07-29T04:47:38;17.40;99.90
9497;DHT22;4786;51.270;4.456;2022-07-29T04:50:04;17.60;99.90
9497;DHT22;4786;51.270;4.456;2022-07-29T04:52:32;17.60;99.90
9497;DHT22;4786;51.270;4.456;2022-07-29T04:54:58;17.60;99.90
9497;DHT22;4786;51.270;4.456;2022-07-29T04:57:24;17.60;99.90
9497;DHT22;4786;51.270;4.456;2022-07-29T04:59:50;17.60;99.90
9497;DHT22;4786;51.270;4.456;2022-07-29T05:02:15;17.70;99.90
9497;DHT22;4786;51.270;4.456;2022-07-29T05:04:41;17.60;99.90
9497;DHT22;4786;51.270;4.456;2022-07-29T05:07:07;17.60;99.90
9497;DHT22;4786;51.270;4.456;2022-07-29T05:09:33;17.60;99.90
9497;DHT22;4786;51.270;4.456;2022-07-29T05:11:59;17.50;99.90
9497;DHT22;4786;51.270;4.456;2022-07-29T05:14:25;17.50;99.90
9497;DHT22;4786;51.270;4.456;2022-07-29T05:16:50;17.50;99.90
9497;DHT22;4786;51.270;4.456;2022-07-29T05:19:17;17.60;99.90
9497;DHT22;4786;51.270;4.456;2022-07-29T05:21:44;17.70;99.90
9497;DHT22;4786;51.270;4.456;2022-07-29T05:24:10;17.70;99.90
9497;DHT22;4786;51.270;4.456;2022-07-29T05:26:36;17.70;99.90
9497;DHT22;4786;51.270;4.456;2022-07-29T05:29:02;17.80;99.90
9497;DHT22;4786;51.270;4.456;2022-07-29T05:31:28;17.80;99.90
9497;DHT22;4786;51.270;4.456;2022-07-29T05:33:54;18.00;99.90
9497;DHT22;4786;51.270;4.456;2022-07-29T05:36:19;18.00;99.90
9497;DHT22;4786;51.270;4.456;2022-07-29T05:38:45;18.50;99.90
9497;DHT22;4786;51.270;4.456;2022-07-29T05:41:10;19.30;99.90
9497;DHT22;4786;51.270;4.456;2022-07-29T05:43:36;20.50;99.90
9497;DHT22;4786;51.270;4.456;2022-07-29T05:46:02;21.60;99.90
9497;DHT22;4786;51.270;4.456;2022-07-29T05:48:28;22.40;99.90
9497;DHT22;4786;51.270;4.456;2022-07-29T05:50:54;22.80;99.90
9497;DHT22;4786;51.270;4.456;2022-07-29T05:53:20;22.80;99.90
9497;DHT22;4786;51.270;4.456;2022-07-29T05:55:46;22.50;99.90
9497;DHT22;4786;51.270;4.456;2022-07-29T05:58:12;22.30;99.90
9497;DHT22;4786;51.270;4.456;2022-07-29T06:00:37;22.70;99.90
9497;DHT22;4786;51.270;4.456;2022-07-29T06:03:03;23.70;99.90
9497;DHT22;4786;51.270;4.456;2022-07-29T06:05:28;24.70;99.90
9497;DHT22;4786;51.270;4.456;2022-07-29T06:07:55;25.50;99.90
9497;DHT22;4786;51.270;4.456;2022-07-29T06:10:21;26.50;99.90
9497;DHT22;4786;51.270;4.456;2022-07-29T06:12:46;27.10;99.90
9497;DHT22;4786;51.270;4.456;2022-07-29T06:15:12;28.00;98.60
9497;DHT22;4786;51.270;4.456;2022-07-29T06:17:37;28.50;97.50
9497;DHT22;4786;51.270;4.456;2022-07-29T06:20:04;29.00;95.30
9497;DHT22;4786;51.270;4.456;2022-07-29T06:22:30;29.20;94.80
9497;DHT22;4786;51.270;4.456;2022-07-29T06:24:56;29.30;94.80
9497;DHT22;4786;51.270;4.456;2022-07-29T06:27:22;28.80;92.40
9497;DHT22;4786;51.270;4.456;2022-07-29T06:29:47;28.50;93.20
9497;DHT22;4786;51.270;4.456;2022-07-29T06:32:13;27.70;93.80
9497;DHT22;4786;51.270;4.456;2022-07-29T06:34:39;26.60;95.40
9497;DHT22;4786;51.270;4.456;2022-07-29T06:37:08;25.40;97.40
9497;DHT22;4786;51.270;4.456;2022-07-29T06:39:37;25.00;99.00
9497;DHT22;4786;51.270;4.456;2022-07-29T06:42:06;24.50;99.90
9497;DHT22;4786;51.270;4.456;2022-07-29T06:44:32;23.90;99.90
9497;DHT22;4786;51.270;4.456;2022-07-29T06:47:18;23.30;99.90
9497;DHT22;4786;51.270;4.456;2022-07-29T06:49:44;23.30;99.90
9497;DHT22;4786;51.270;4.456;2022-07-29T06:52:10;23.60;99.90
9497;DHT22;4786;51.270;4.456;2022-07-29T06:54:36;24.40;99.90
9497;DHT22;4786;51.270;4.456;2022-07-29T06:57:02;25.50;99.90
9497;DHT22;4786;51.270;4.456;2022-07-29T06:59:28;26.70;99.40
9497;DHT22;4786;51.270;4.456;2022-07-29T07:01:54;27.90;97.60
9497;DHT22;4786;51.270;4.456;2022-07-29T07:04:20;28.30;95.90
9497;DHT22;4786;51.270;4.456;2022-07-29T07:06:46;28.80;94.60
9497;DHT22;4786;51.270;4.456;2022-07-29T07:09:12;29.00;94.20
9497;DHT22;4786;51.270;4.456;2022-07-29T07:11:38;29.70;93.40
9497;DHT22;4786;51.270;4.456;2022-07-29T07:14:04;29.90;92.30
9497;DHT22;4786;51.270;4.456;2022-07-29T07:16:31;30.40;92.10
9497;DHT22;4786;51.270;4.456;2022-07-29T07:18:57;30.70;90.40
9497;DHT22;4786;51.270;4.456;2022-07-29T07:21:22;30.90;90.20
9497;DHT22;4786;51.270;4.456;2022-07-29T07:23:48;31.00;88.60
9497;DHT22;4786;51.270;4.456;2022-07-29T07:26:14;30.80;88.60
9497;DHT22;4786;51.270;4.456;2022-07-29T07:28:40;31.00;89.10
9497;DHT22;4786;51.270;4.456;2022-07-29T07:31:05;31.00;87.80
9497;DHT22;4786;51.270;4.456;2022-07-29T07:33:31;30.80;87.40
9497;DHT22;4786;51.270;4.456;2022-07-29T07:35:57;30.80;89.50
9497;DHT22;4786;51.270;4.456;2022-07-29T07:38:23;30.90;88.50
9497;DHT22;4786;51.270;4.456;2022-07-29T07:40:49;31.10;88.20
9497;DHT22;4786;51.270;4.456;2022-07-29T07:43:15;31.20;89.30
9497;DHT22;4786;51.270;4.456;2022-07-29T07:45:41;30.70;87.00
9497;DHT22;4786;51.270;4.456;2022-07-29T07:48:07;30.60;89.70
9497;DHT22;4786;51.270;4.456;2022-07-29T07:50:35;30.40;89.70
9497;DHT22;4786;51.270;4.456;2022-07-29T07:53:01;30.00;89.90
9497;DHT22;4786;51.270;4.456;2022-07-29T07:55:27;29.30;90.40
9497;DHT22;4786;51.270;4.456;2022-07-29T07:57:56;28.90;91.20
9497;DHT22;4786;51.270;4.456;2022-07-29T08:00:22;28.30;91.70
9497;DHT22;4786;51.270;4.456;2022-07-29T08:02:48;28.10;92.50
9497;DHT22;4786;51.270;4.456;2022-07-29T08:05:15;27.80;92.60
9497;DHT22;4786;51.270;4.456;2022-07-29T08:07:45;27.60;92.90
9497;DHT22;4786;51.270;4.456;2022-07-29T08:10:12;27.50;92.40
9497;DHT22;4786;51.270;4.456;2022-07-29T08:12:38;27.10;93.20
9497;DHT22;4786;51.270;4.456;2022-07-29T08:15:05;27.10;92.90
9497;DHT22;4786;51.270;4.456;2022-07-29T08:17:33;26.70;93.30
9497;DHT22;4786;51.270;4.456;2022-07-29T08:19:58;26.40;94.60
9497;DHT22;4786;51.270;4.456;2022-07-29T08:22:24;26.10;94.50
9497;DHT22;4786;51.270;4.456;2022-07-29T08:24:50;26.20;95.20
9497;DHT22;4786;51.270;4.456;2022-07-29T08:27:19;26.40;96.40
9497;DHT22;4786;51.270;4.456;2022-07-29T08:29:45;26.70;97.60
9497;DHT22;4786;51.270;4.456;2022-07-29T08:32:11;26.70;95.80
9497;DHT22;4786;51.270;4.456;2022-07-29T08:34:37;26.50;95.30
9497;DHT22;4786;51.270;4.456;2022-07-29T08:37:04;26.00;96.20
9497;DHT22;4786;51.270;4.456;2022-07-29T08:39:30;25.90;96.90
9497;DHT22;4786;51.270;4.456;2022-07-29T08:41:56;25.90;96.40
9497;DHT22;4786;51.270;4.456;2022-07-29T08:44:22;25.90;97.10
9497;DHT22;4786;51.270;4.456;2022-07-29T08:46:49;25.50;96.50
9497;DHT22;4786;51.270;4.456;2022-07-29T08:49:16;25.30;96.60
9497;DHT22;4786;51.270;4.456;2022-07-29T08:51:43;25.40;97.50
9497;DHT22;4786;51.270;4.456;2022-07-29T08:54:09;25.50;97.60
9497;DHT22;4786;51.270;4.456;2022-07-29T08:56:36;25.50;97.80
9497;DHT22;4786;51.270;4.456;2022-07-29T08:59:05;25.60;97.70
9497;DHT22;4786;51.270;4.456;2022-07-29T09:01:34;25.70;97.70
9497;DHT22;4786;51.270;4.456;2022-07-29T09:04:03;25.90;97.70
9497;DHT22;4786;51.270;4.456;2022-07-29T09:06:32;26.00;96.90
9497;DHT22;4786;51.270;4.456;2022-07-29T09:09:00;26.20;97.90
9497;DHT22;4786;51.270;4.456;2022-07-29T09:11:27;26.10;96.10
9497;DHT22;4786;51.270;4.456;2022-07-29T09:13:53;26.00;97.00
9497;DHT22;4786;51.270;4.456;2022-07-29T09:16:19;26.00;96.50
9497;DHT22;4786;51.270;4.456;2022-07-29T09:18:46;25.90;96.90
9497;DHT22;4786;51.270;4.456;2022-07-29T09:21:15;25.80;95.70
9497;DHT22;4786;51.270;4.456;2022-07-29T09:26:31;25.50;96.20
9497;DHT22;4786;51.270;4.456;2022-07-29T09:28:58;25.60;97.00
9497;DHT22;4786;51.270;4.456;2022-07-29T09:31:36;25.70;96.10
9497;DHT22;4786;51.270;4.456;2022-07-29T09:34:03;25.70;95.90
9497;DHT22;4786;51.270;4.456;2022-07-29T09:36:29;25.90;95.20
9497;DHT22;4786;51.270;4.456;2022-07-29T09:39:01;25.90;95.60
9497;DHT22;4786;51.270;4.456;2022-07-29T09:41:28;26.10;95.40
9497;DHT22;4786;51.270;4.456;2022-07-29T09:43:59;26.10;94.50
9497;DHT22;4786;51.270;4.456;2022-07-29T09:46:25;26.20;95.00
9497;DHT22;4786;51.270;4.456;2022-07-29T09:49:12;26.50;95.50
9497;DHT22;4786;51.270;4.456;2022-07-29T09:51:38;26.80;93.70
9497;DHT22;4786;51.270;4.456;2022-07-29T09:54:26;27.00;93.50
9497;DHT22;4786;51.270;4.456;2022-07-29T09:56:52;27.30;93.50
9497;DHT22;4786;51.270;4.456;2022-07-29T09:59:19;27.60;94.70
9497;DHT22;4786;51.270;4.456;2022-07-29T10:01:52;27.90;93.30
9497;DHT22;4786;51.270;4.456;2022-07-29T10:04:19;28.00;93.00
9497;DHT22;4786;51.270;4.456;2022-07-29T10:07:03;28.20;93.50
9497;DHT22;4786;51.270;4.456;2022-07-29T10:09:30;28.20;91.30
9497;DHT22;4786;51.270;4.456;2022-07-29T10:12:08;28.20;91.70
9497;DHT22;4786;51.270;4.456;2022-07-29T10:14:40;28.40;91.20
9497;DHT22;4786;51.270;4.456;2022-07-29T10:17:08;28.30;85.70
9497;DHT22;4786;51.270;4.456;2022-07-29T10:19:36;28.30;90.20
9497;DHT22;4786;51.270;4.456;2022-07-29T10:22:06;28.50;90.20
9497;DHT22;4786;51.270;4.456;2022-07-29T10:24:32;28.70;91.00
9497;DHT22;4786;51.270;4.456;2022-07-29T10:27:01;28.70;88.80
9497;DHT22;4786;51.270;4.456;2022-07-29T10:29:28;28.80;88.50
9497;DHT22;4786;51.270;4.456;2022-07-29T10:40:48;28.80;91.20
9497;DHT22;4786;51.270;4.456;2022-07-29T10:43:43;28.80;90.20
9497;DHT22;4786;51.270;4.456;2022-07-29T10:46:11;29.20;91.80
9497;DHT22;4786;51.270;4.456;2022-07-29T10:49:16;29.50;90.60
9497;DHT22;4786;51.270;4.456;2022-07-29T10:54:18;29.20;85.10
9497;DHT22;4786;51.270;4.456;2022-07-29T10:56:45;29.20;85.50
9497;DHT22;4786;51.270;4.456;2022-07-29T11:01:50;29.20;87.80
9497;DHT22;4786;51.270;4.456;2022-07-29T11:07:11;29.50;86.90
9497;DHT22;4786;51.270;4.456;2022-07-29T11:09:38;29.60;85.70
9497;DHT22;4786;51.270;4.456;2022-07-29T11:15:06;29.90;89.00
9497;DHT22;4786;51.270;4.456;2022-07-29T11:20:45;30.40;86.10
9497;DHT22;4786;51.270;4.456;2022-07-29T11:23:37;30.40;82.20
9497;DHT22;4786;51.270;4.456;2022-07-29T11:34:24;29.90;81.50
9497;DHT22;4786;51.270;4.456;2022-07-29T11:39:42;29.40;85.60
9497;DHT22;4786;51.270;4.456;2022-07-29T11:47:22;29.90;82.40
9497;DHT22;4786;51.270;4.456;2022-07-29T11:49:48;30.00;84.50
9497;DHT22;4786;51.270;4.456;2022-07-29T11:52:16;30.10;78.70
9497;DHT22;4786;51.270;4.456;2022-07-29T11:54:42;30.00;82.50
9497;DHT22;4786;51.270;4.456;2022-07-29T11:57:09;29.90;82.00
9497;DHT22;4786;51.270;4.456;2022-07-29T11:59:45;29.90;79.00
9497;DHT22;4786;51.270;4.456;2022-07-29T12:02:13;29.90;82.80
9497;DHT22;4786;51.270;4.456;2022-07-29T12:04:51;30.10;80.30
9497;DHT22;4786;51.270;4.456;2022-07-29T12:07:17;30.00;77.70
9497;DHT22;4786;51.270;4.456;2022-07-29T12:09:50;30.10;77.90
9497;DHT22;4786;51.270;4.456;2022-07-29T12:12:17;30.00;79.40
9497;DHT22;4786;51.270;4.456;2022-07-29T12:14:43;30.20;81.70
9497;DHT22;4786;51.270;4.456;2022-07-29T12:17:32;30.30;78.90
9497;DHT22;4786;51.270;4.456;2022-07-29T12:20:03;30.10;78.50
9497;DHT22;4786;51.270;4.456;2022-07-29T12:22:31;30.00;80.50
9497;DHT22;4786;51.270;4.456;2022-07-29T12:25:17;29.70;78.10
9497;DHT22;4786;51.270;4.456;2022-07-29T12:27:44;29.40;78.70
9497;DHT22;4786;51.270;4.456;2022-07-29T12:30:14;29.20;81.10
9497;DHT22;4786;51.270;4.456;2022-07-29T12:32:45;29.20;83.50
9497;DHT22;4786;51.270;4.456;2022-07-29T12:35:14;29.30;85.10
9497;DHT22;4786;51.270;4.456;2022-07-29T12:37:41;29.50;85.70
9497;DHT22;4786;51.270;4.456;2022-07-29T12:40:08;29.70;82.40
9497;DHT22;4786;51.270;4.456;2022-07-29T12:42:35;29.90;80.10
9497;DHT22;4786;51.270;4.456;2022-07-29T12:45:02;29.60;80.30
9497;DHT22;4786;51.270;4.456;2022-07-29T12:47:28;28.90;80.00
9497;DHT22;4786;51.270;4.456;2022-07-29T12:50:13;28.50;80.60
9497;DHT22;4786;51.270;4.456;2022-07-29T12:52:44;28.20;84.60
9497;DHT22;4786;51.270;4.456;2022-07-29T12:55:11;28.40;87.00
9497;DHT22;4786;51.270;4.456;2022-07-29T12:57:48;28.60;81.80
9497;DHT22;4786;51.270;4.456;2022-07-29T13:00:16;28.80;82.50
9497;DHT22;4786;51.270;4.456;2022-07-29T13:02:42;29.10;87.60
9497;DHT22;4786;51.270;4.456;2022-07-29T13:05:10;29.20;80.60
9497;DHT22;4786;51.270;4.456;2022-07-29T13:07:37;29.50;85.20
9497;DHT22;4786;51.270;4.456;2022-07-29T13:10:17;29.70;81.40
9497;DHT22;4786;51.270;4.456;2022-07-29T13:13:08;29.90;81.30
9497;DHT22;4786;51.270;4.456;2022-07-29T13:15:37;30.10;78.90
9497;DHT22;4786;51.270;4.456;2022-07-29T13:18:03;30.20;81.70
9497;DHT22;4786;51.270;4.456;2022-07-29T13:20:29;30.30;81.90
9497;DHT22;4786;51.270;4.456;2022-07-29T13:23:00;30.30;78.40
9497;DHT22;4786;51.270;4.456;2022-07-29T13:25:30;30.50;79.50
9497;DHT22;4786;51.270;4.456;2022-07-29T13:27:57;30.50;82.00
9497;DHT22;4786;51.270;4.456;2022-07-29T13:30:23;30.70;81.90
9497;DHT22;4786;51.270;4.456;2022-07-29T13:32:49;30.60;78.30
9497;DHT22;4786;51.270;4.456;2022-07-29T13:35:15;30.70;81.30
9497;DHT22;4786;51.270;4.456;2022-07-29T13:37:41;30.60;79.30
9497;DHT22;4786;51.270;4.456;2022-07-29T13:40:08;30.70;80.50
9497;DHT22;4786;51.270;4.456;2022-07-29T13:42:34;30.80;82.20
9497;DHT22;4786;51.270;4.456;2022-07-29T13:45:00;30.80;80.20
9497;DHT22;4786;51.270;4.456;2022-07-29T13:47:26;30.80;80.20
9497;DHT22;4786;51.270;4.456;2022-07-29T13:49:52;30.90;84.30
9497;DHT22;4786;51.270;4.456;2022-07-29T13:52:19;30.90;79.80
9497;DHT22;4786;51.270;4.456;2022-07-29T13:54:45;30.90;78.30
9497;DHT22;4786;51.270;4.456;2022-07-29T13:57:12;30.50;78.30
9497;DHT22;4786;51.270;4.456;2022-07-29T13:59:39;30.50;78.70
9497;DHT22;4786;51.270;4.456;2022-07-29T14:02:06;30.40;79.90
9497;DHT22;4786;51.270;4.456;2022-07-29T14:04:32;30.40;78.30
9497;DHT22;4786;51.270;4.456;2022-07-29T14:06:58;30.50;80.20
9497;DHT22;4786;51.270;4.456;2022-07-29T14:09:24;30.30;79.90
9497;DHT22;4786;51.270;4.456;2022-07-29T14:11:50;30.30;78.80
9497;DHT22;4786;51.270;4.456;2022-07-29T14:14:18;30.30;79.70
9497;DHT22;4786;51.270;4.456;2022-07-29T14:16:44;30.10;77.60
9497;DHT22;4786;51.270;4.456;2022-07-29T14:19:10;30.10;76.10
9497;DHT22;4786;51.270;4.456;2022-07-29T14:21:37;30.10;79.70
9497;DHT22;4786;51.270;4.456;2022-07-29T14:24:03;30.20;79.70
9497;DHT22;4786;51.270;4.456;2022-07-29T14:26:29;29.90;78.30
9497;DHT22;4786;51.270;4.456;2022-07-29T14:28:55;30.00;78.00
9497;DHT22;4786;51.270;4.456;2022-07-29T14:31:21;30.00;79.10
9497;DHT22;4786;51.270;4.456;2022-07-29T14:33:47;30.00;78.60
9497;DHT22;4786;51.270;4.456;2022-07-29T14:36:12;29.90;78.80
9497;DHT22;4786;51.270;4.456;2022-07-29T14:38:39;29.70;76.50
9497;DHT22;4786;51.270;4.456;2022-07-29T14:41:06;29.70;74.10
9497;DHT22;4786;51.270;4.456;2022-07-29T14:43:32;29.60;76.70
9497;DHT22;4786;51.270;4.456;2022-07-29T14:45:58;29.50;74.90
9497;DHT22;4786;51.270;4.456;2022-07-29T14:48:24;29.50;77.60
9497;DHT22;4786;51.270;4.456;2022-07-29T14:50:50;29.40;77.60
9497;DHT22;4786;51.270;4.456;2022-07-29T14:53:16;29.40;80.50
9497;DHT22;4786;51.270;4.456;2022-07-29T14:55:43;29.50;77.90
9497;DHT22;4786;51.270;4.456;2022-07-29T14:58:09;29.60;80.80
9497;DHT22;4786;51.270;4.456;2022-07-29T15:00:35;29.40;78.00
9497;DHT22;4786;51.270;4.456;2022-07-29T15:03:02;29.40;77.20
9497;DHT22;4786;51.270;4.456;2022-07-29T15:05:29;29.30;76.90
9497;DHT22;4786;51.270;4.456;2022-07-29T15:07:55;29.20;80.10
9497;DHT22;4786;51.270;4.456;2022-07-29T15:10:21;29.10;83.80
9497;DHT22;4786;51.270;4.456;2022-07-29T15:12:47;29.20;80.00
9497;DHT22;4786;51.270;4.456;2022-07-29T15:15:13;29.10;78.30
9497;DHT22;4786;51.270;4.456;2022-07-29T15:17:39;29.10;79.20
9497;DHT22;4786;51.270;4.456;2022-07-29T15:20:06;29.10;78.90
9497;DHT22;4786;51.270;4.456;2022-07-29T15:22:31;29.10;79.60
9497;DHT22;4786;51.270;4.456;2022-07-29T15:24:58;28.90;78.50
9497;DHT22;4786;51.270;4.456;2022-07-29T15:27:23;28.80;82.00
9497;DHT22;4786;51.270;4.456;2022-07-29T15:29:49;28.90;79.50
9497;DHT22;4786;51.270;4.456;2022-07-29T15:32:15;28.80;82.50
9497;DHT22;4786;51.270;4.456;2022-07-29T15:34:41;28.80;80.80
9497;DHT22;4786;51.270;4.456;2022-07-29T15:37:07;28.80;79.50
9497;DHT22;4786;51.270;4.456;2022-07-29T15:39:33;28.70;79.20
9497;DHT22;4786;51.270;4.456;2022-07-29T15:41:59;28.40;77.40
9497;DHT22;4786;51.270;4.456;2022-07-29T15:44:26;28.20;79.60
9497;DHT22;4786;51.270;4.456;2022-07-29T15:46:52;28.10;79.80
9497;DHT22;4786;51.270;4.456;2022-07-29T15:49:35;28.20;79.80
9497;DHT22;4786;51.270;4.456;2022-07-29T15:52:04;28.20;80.30
9497;DHT22;4786;51.270;4.456;2022-07-29T15:54:32;28.20;80.30
9497;DHT22;4786;51.270;4.456;2022-07-29T15:56:58;28.20;81.60
9497;DHT22;4786;51.270;4.456;2022-07-29T15:59:24;28.20;78.30
9497;DHT22;4786;51.270;4.456;2022-07-29T16:01:51;28.20;79.80
9497;DHT22;4786;51.270;4.456;2022-07-29T16:04:17;28.20;82.30
9497;DHT22;4786;51.270;4.456;2022-07-29T16:06:43;28.30;80.40
9497;DHT22;4786;51.270;4.456;2022-07-29T16:09:10;28.30;82.30
9497;DHT22;4786;51.270;4.456;2022-07-29T16:11:36;28.30;82.10
9497;DHT22;4786;51.270;4.456;2022-07-29T16:14:03;28.20;79.00
9497;DHT22;4786;51.270;4.456;2022-07-29T16:16:29;28.10;79.00
9497;DHT22;4786;51.270;4.456;2022-07-29T16:18:56;28.00;80.00
9497;DHT22;4786;51.270;4.456;2022-07-29T16:21:22;27.90;81.00
9497;DHT22;4786;51.270;4.456;2022-07-29T16:23:48;27.90;82.30
9497;DHT22;4786;51.270;4.456;2022-07-29T16:26:14;27.90;82.10
9497;DHT22;4786;51.270;4.456;2022-07-29T16:28:40;27.80;81.10
9497;DHT22;4786;51.270;4.456;2022-07-29T16:31:06;27.70;81.30
9497;DHT22;4786;51.270;4.456;2022-07-29T16:33:32;27.60;81.10
9497;DHT22;4786;51.270;4.456;2022-07-29T16:35:58;27.50;81.10
9497;DHT22;4786;51.270;4.456;2022-07-29T16:38:25;27.20;80.50
9497;DHT22;4786;51.270;4.456;2022-07-29T16:40:51;27.20;81.80
9497;DHT22;4786;51.270;4.456;2022-07-29T16:43:17;27.20;81.10
9497;DHT22;4786;51.270;4.456;2022-07-29T16:45:43;27.10;82.00
9497;DHT22;4786;51.270;4.456;2022-07-29T16:48:09;27.10;82.50
9497;DHT22;4786;51.270;4.456;2022-07-29T16:50:35;27.00;83.20
9497;DHT22;4786;51.270;4.456;2022-07-29T16:53:00;27.00;85.00
9497;DHT22;4786;51.270;4.456;2022-07-29T16:55:26;27.10;84.50
9497;DHT22;4786;51.270;4.456;2022-07-29T16:57:52;27.00;84.50
9497;DHT22;4786;51.270;4.456;2022-07-29T17:00:19;26.90;83.00